createdAt,value
2019-05-06T00:00:26.534Z,7.55
2019-05-06T00:02:55.970Z,6.53
2019-05-06T00:05:26.202Z,5.90
2019-05-06T00:07:55.558Z,6.95
2019-05-06T00:10:34.122Z,7.25
2019-05-06T00:13:04.960Z,6.90
2019-05-06T00:15:34.638Z,7.12
2019-05-06T00:18:05.261Z,8.33
2019-05-06T00:20:35.147Z,6.72
2019-05-06T00:23:06.358Z,6.97
2019-05-06T00:25:37.553Z,6.28
2019-05-06T00:28:24.527Z,7.22
2019-05-06T00:31:15.929Z,6.00
2019-05-06T00:33:44.384Z,6.37
2019-05-06T00:36:14.148Z,7.83
2019-05-06T00:38:45.386Z,6.40
2019-05-06T00:41:25.501Z,6.90
2019-05-06T00:43:54.846Z,8.10
2019-05-06T00:46:24.387Z,7.95
2019-05-06T00:48:54.836Z,8.03
2019-05-06T00:51:24.508Z,8.35
2019-05-06T00:53:58.657Z,8.80
2019-05-06T00:56:27.926Z,7.25
2019-05-06T00:58:57.453Z,7.33
2019-05-06T01:01:29.643Z,7.42
2019-05-06T01:03:57.702Z,7.12
2019-05-06T01:06:27.293Z,6.80
2019-05-06T01:08:56.574Z,6.85
2019-05-06T01:11:26.101Z,7.53
2019-05-06T01:13:59.722Z,7.58
2019-05-06T01:16:28.993Z,6.20
2019-05-06T01:18:58.506Z,6.85
2019-05-06T01:21:27.773Z,7.05
2019-05-06T01:23:57.055Z,7.75
2019-05-06T01:26:26.321Z,7.67
2019-05-06T01:28:55.600Z,6.92
2019-05-06T01:31:39.527Z,6.47
2019-05-06T01:33:56.017Z,7.53
2019-05-06T01:36:25.669Z,7.05
2019-05-06T01:38:56.573Z,7.72
2019-05-06T01:41:45.049Z,7.70
2019-05-06T01:44:14.329Z,7.65
2019-05-06T01:46:44.747Z,6.42
2019-05-06T01:49:14.288Z,7.55
2019-05-06T01:51:43.866Z,7.80
2019-05-06T01:54:14.206Z,8.40
2019-05-06T01:56:44.499Z,8.00
2019-05-06T01:59:14.949Z,6.87
2019-05-06T02:01:57.361Z,7.58
2019-05-06T02:04:15.268Z,7.03
2019-05-06T02:06:44.545Z,7.47
2019-05-06T02:09:15.550Z,8.25
2019-05-06T02:11:47.888Z,6.30
2019-05-06T02:14:16.430Z,6.92
2019-05-06T02:16:46.021Z,7.67
2019-05-06T02:19:15.625Z,7.97
2019-05-06T02:21:46.877Z,7.25
2019-05-06T02:24:35.768Z,7.85
2019-05-06T02:27:05.817Z,8.28
2019-05-06T02:29:48.660Z,7.42
2019-05-06T02:32:31.623Z,8.85
2019-05-06T02:35:05.236Z,8.30
2019-05-06T02:37:39.205Z,6.62
2019-05-06T02:40:24.814Z,7.45
2019-05-06T02:42:54.534Z,8.23
2019-05-06T02:45:24.226Z,8.20
2019-05-06T02:47:58.098Z,9.30
2019-05-06T02:50:47.245Z,10.28
2019-05-06T02:53:18.166Z,9.48
2019-05-06T02:55:47.448Z,9.20
2019-05-06T02:58:16.718Z,7.25
2019-05-06T03:00:46.947Z,9.45
2019-05-06T03:03:17.185Z,9.00
2019-05-06T03:05:46.474Z,9.65
2019-05-06T03:08:15.744Z,9.50
2019-05-06T03:10:45.007Z,9.30
2019-05-06T03:13:14.554Z,9.80
2019-05-06T03:15:44.403Z,9.20
2019-05-06T03:18:15.107Z,8.75
2019-05-06T03:20:53.153Z,9.08
2019-05-06T03:23:23.644Z,9.03
2019-05-06T03:25:53.608Z,9.95
2019-05-06T03:28:24.002Z,10.05
2019-05-06T03:30:56.723Z,9.55
2019-05-06T03:33:47.485Z,10.90
2019-05-06T03:36:07.165Z,9.65
2019-05-06T03:38:26.964Z,9.78
2019-05-06T03:40:56.230Z,8.60
2019-05-06T03:43:25.515Z,9.25
2019-05-06T03:46:04.304Z,10.65
2019-05-06T03:48:43.927Z,10.95
2019-05-06T03:51:13.521Z,10.45
2019-05-06T03:53:43.990Z,10.58
2019-05-06T03:56:18.844Z,10.78
2019-05-06T03:58:45.028Z,10.40
2019-05-06T04:01:16.524Z,11.65
2019-05-06T04:03:52.265Z,12.10
2019-05-06T04:06:18.329Z,10.65
2019-05-06T04:08:49.243Z,11.70
2019-05-06T04:11:18.522Z,11.03
2019-05-06T04:13:49.245Z,11.35
2019-05-06T04:16:23.418Z,11.78
2019-05-06T04:18:54.610Z,11.28
2019-05-06T04:21:43.604Z,12.18
2019-05-06T04:24:15.113Z,12.43
2019-05-06T04:26:46.720Z,11.75
2019-05-06T04:29:16.190Z,12.60
2019-05-06T04:31:45.964Z,12.37
2019-05-06T04:34:19.452Z,12.85
2019-05-06T04:36:46.630Z,12.68
2019-05-06T04:39:15.960Z,11.30
2019-05-06T04:41:45.477Z,12.30
2019-05-06T04:44:14.822Z,11.85
2019-05-06T04:46:44.576Z,10.68
2019-05-06T04:49:15.028Z,11.60
2019-05-06T04:51:45.645Z,12.07
2019-05-06T04:54:15.002Z,13.08
2019-05-06T04:56:44.443Z,13.15
2019-05-06T04:59:14.134Z,13.85
2019-05-06T05:01:45.481Z,14.03
2019-05-06T05:04:28.518Z,13.08
2019-05-06T05:06:46.412Z,15.23
2019-05-06T05:09:17.456Z,15.50
2019-05-06T05:11:49.066Z,15.40
2019-05-06T05:14:25.364Z,15.65
2019-05-06T05:16:58.525Z,14.40
2019-05-06T05:19:29.445Z,13.83
2019-05-06T05:22:07.256Z,13.90
2019-05-06T05:24:37.309Z,13.28
2019-05-06T05:27:07.552Z,12.50
2019-05-06T05:29:36.897Z,11.63
2019-05-06T05:32:07.469Z,13.03
2019-05-06T05:34:40.409Z,11.78
2019-05-06T05:37:07.793Z,12.80
2019-05-06T05:39:37.081Z,11.43
2019-05-06T05:42:07.989Z,12.78
2019-05-06T05:44:43.126Z,12.18
2019-05-06T05:47:12.666Z,12.00
2019-05-06T05:49:59.021Z,11.78
2019-05-06T05:52:28.292Z,12.88
2019-05-06T05:54:57.817Z,11.35
2019-05-06T05:57:27.343Z,12.65
2019-05-06T06:00:09.034Z,11.45
2019-05-06T06:02:38.308Z,12.53
2019-05-06T06:05:08.214Z,13.85
2019-05-06T06:07:37.729Z,12.47
2019-05-06T06:10:13.271Z,11.83
2019-05-06T06:12:43.110Z,12.90
2019-05-06T06:15:22.314Z,13.08
2019-05-06T06:17:53.177Z,11.38
2019-05-06T06:20:42.293Z,12.13
2019-05-06T06:23:13.529Z,11.45
2019-05-06T06:25:43.452Z,11.35
2019-05-06T06:28:12.726Z,11.57
2019-05-06T06:31:02.977Z,11.35
2019-05-06T06:33:33.505Z,11.35
2019-05-06T06:36:22.930Z,12.63
2019-05-06T06:38:56.006Z,11.45
2019-05-06T06:41:25.361Z,12.20
2019-05-06T06:43:56.513Z,14.40
2019-05-06T06:46:26.131Z,12.78
2019-05-06T06:48:55.413Z,13.72
2019-05-06T06:51:25.236Z,13.40
2019-05-06T06:53:54.841Z,13.10
2019-05-06T06:56:32.964Z,12.45
2019-05-06T06:59:04.345Z,12.30
2019-05-06T07:01:35.345Z,13.08
2019-05-06T07:04:10.414Z,11.63
2019-05-06T07:06:42.385Z,13.05
2019-05-06T07:09:12.571Z,4.35
2019-05-06T07:11:42.868Z,11.45
2019-05-06T07:14:13.716Z,12.37
2019-05-06T07:16:43.233Z,12.28
2019-05-06T07:19:14.521Z,12.60
2019-05-06T07:21:48.897Z,11.65
2019-05-06T07:24:18.180Z,11.78
2019-05-06T07:26:49.109Z,12.40
2019-05-06T07:29:23.339Z,11.83
2019-05-06T07:31:49.378Z,12.20
2019-05-06T07:34:18.981Z,11.90
2019-05-06T07:36:48.593Z,12.00
2019-05-06T07:39:17.876Z,10.90
2019-05-06T07:41:55.005Z,13.00
2019-05-06T07:44:25.934Z,10.65
2019-05-06T07:46:59.622Z,13.40
2019-05-06T07:49:29.300Z,9.65
2019-05-06T07:51:58.840Z,11.30
2019-05-06T07:54:28.446Z,11.12
2019-05-06T07:56:57.740Z,9.93
2019-05-06T07:59:27.349Z,10.58
2019-05-06T08:01:56.967Z,10.65
2019-05-06T08:04:26.245Z,10.10
2019-05-06T08:06:55.529Z,11.43
2019-05-06T08:09:24.883Z,9.73
2019-05-06T08:11:54.466Z,9.15
2019-05-06T08:14:25.453Z,11.25
2019-05-06T08:16:56.393Z,11.05
2019-05-06T08:19:25.749Z,11.18
2019-05-06T08:21:56.695Z,10.20
2019-05-06T08:24:25.981Z,10.63
2019-05-06T08:26:55.253Z,10.23
2019-05-06T08:29:24.593Z,10.75
2019-05-06T08:31:54.103Z,11.33
2019-05-06T08:34:23.393Z,11.70
2019-05-06T08:37:06.665Z,11.30
2019-05-06T08:39:35.958Z,10.95
2019-05-06T08:42:05.404Z,11.15
2019-05-06T08:44:34.668Z,12.05
2019-05-06T08:47:03.945Z,10.48
2019-05-06T08:49:34.872Z,10.32
2019-05-06T08:52:05.862Z,11.28
2019-05-06T08:54:39.746Z,11.83
2019-05-06T08:57:09.030Z,11.53
2019-05-06T08:59:38.322Z,11.83
2019-05-06T09:02:08.478Z,11.18
2019-05-06T09:04:38.058Z,11.30
2019-05-06T09:07:07.658Z,11.20
2019-05-06T09:09:36.950Z,11.30
2019-05-06T09:12:06.289Z,10.90
2019-05-06T09:14:35.870Z,11.53
2019-05-06T09:17:06.105Z,9.07
2019-05-06T09:19:35.394Z,11.00
2019-05-06T09:22:04.740Z,10.27
2019-05-06T09:24:34.025Z,10.00
2019-05-06T09:27:04.946Z,9.47
2019-05-06T09:29:42.943Z,10.80
2019-05-06T09:32:14.190Z,9.27
2019-05-06T09:34:45.134Z,10.20
2019-05-06T09:37:15.484Z,9.10
2019-05-06T09:39:46.118Z,8.70
2019-05-06T09:42:16.201Z,9.30
2019-05-06T09:44:50.296Z,7.90
2019-05-06T09:47:33.033Z,7.60
2019-05-06T09:50:02.903Z,7.67
2019-05-06T09:52:33.287Z,8.50
2019-05-06T09:55:04.826Z,8.83
2019-05-06T09:57:35.811Z,8.43
2019-05-06T10:00:06.880Z,8.37
2019-05-06T10:02:37.892Z,7.00
2019-05-06T10:05:07.149Z,6.80
2019-05-06T10:07:36.777Z,7.97
2019-05-06T10:10:06.697Z,7.20
2019-05-06T10:12:36.052Z,7.60
2019-05-06T10:15:06.195Z,5.83
2019-05-06T10:17:36.146Z,7.50
2019-05-06T10:20:06.366Z,7.57
2019-05-06T10:22:36.621Z,6.43
2019-05-06T10:25:06.474Z,6.57
2019-05-06T10:27:37.226Z,6.93
2019-05-06T10:30:12.375Z,8.97
2019-05-06T10:32:45.670Z,8.10
2019-05-06T10:35:15.594Z,10.40
2019-05-06T10:38:02.825Z,10.70
2019-05-06T10:40:34.568Z,11.30
2019-05-06T10:43:06.929Z,10.40
2019-05-06T10:45:36.208Z,8.03
2019-05-06T10:48:05.552Z,9.70
2019-05-06T10:50:36.638Z,9.50
2019-05-06T10:53:07.798Z,9.53
2019-05-06T10:55:38.709Z,8.60
2019-05-06T10:58:07.990Z,9.67
2019-05-06T11:00:37.330Z,9.70
2019-05-06T11:03:14.956Z,8.40
2019-05-06T11:05:44.746Z,9.60
2019-05-06T11:08:14.295Z,9.03
2019-05-06T11:10:45.286Z,9.67
2019-05-06T11:13:15.351Z,9.40
2019-05-06T11:15:44.893Z,10.00
2019-05-06T11:18:14.447Z,10.80
2019-05-06T11:20:44.239Z,9.70
2019-05-06T11:23:14.212Z,10.20
2019-05-06T11:25:43.942Z,10.17
2019-05-06T11:28:34.901Z,9.93
2019-05-06T11:31:22.821Z,8.47
2019-05-06T11:33:55.953Z,10.77
2019-05-06T11:36:27.147Z,11.23
2019-05-06T11:38:56.754Z,11.50
2019-05-06T11:41:26.030Z,11.27
2019-05-06T11:43:55.565Z,14.03
2019-05-06T11:46:24.841Z,13.50
2019-05-06T11:48:54.289Z,15.30
2019-05-06T11:51:25.205Z,14.53
2019-05-06T11:53:54.485Z,13.13
2019-05-06T11:56:23.757Z,13.80
2019-05-06T11:58:54.953Z,13.57
2019-05-06T12:01:29.032Z,13.20
2019-05-06T12:03:58.477Z,13.87
2019-05-06T12:06:27.759Z,13.53
2019-05-06T12:08:57.041Z,13.20
2019-05-06T12:11:26.551Z,12.80
2019-05-06T12:13:55.830Z,13.53
2019-05-06T12:16:26.050Z,12.63
2019-05-06T12:18:55.799Z,13.10
2019-05-06T12:21:25.318Z,12.80
2019-05-06T12:23:54.767Z,12.20
2019-05-06T12:26:24.051Z,12.60
2019-05-06T12:28:53.466Z,11.53
2019-05-06T12:31:24.049Z,13.43
2019-05-06T12:33:53.598Z,12.87
2019-05-06T12:36:23.448Z,13.20
2019-05-06T12:39:16.308Z,15.03
2019-05-06T12:41:48.425Z,12.17
2019-05-06T12:44:17.715Z,10.20
2019-05-06T12:47:04.822Z,10.83
2019-05-06T12:49:34.108Z,9.30
2019-05-06T12:52:03.422Z,9.60
2019-05-06T12:54:33.652Z,11.23
2019-05-06T12:57:03.538Z,9.20
2019-05-06T12:59:33.919Z,8.60
2019-05-06T13:02:03.199Z,8.63
2019-05-06T13:04:49.738Z,8.03
2019-05-06T13:07:03.956Z,7.90
2019-05-06T13:09:33.373Z,8.50
2019-05-06T13:12:03.699Z,7.87
2019-05-06T13:14:37.053Z,6.60
2019-05-06T13:17:07.812Z,6.40
2019-05-06T13:19:37.085Z,6.90
2019-05-06T13:22:07.528Z,31.57
2019-05-06T13:24:37.423Z,34.37
2019-05-06T13:27:09.735Z,17.90
2019-05-06T13:29:39.306Z,7.77
2019-05-06T13:32:12.791Z,9.73
2019-05-06T13:34:44.278Z,7.03
2019-05-06T13:37:14.086Z,10.10
2019-05-06T13:39:44.211Z,10.30
2019-05-06T13:42:16.310Z,7.87
2019-05-06T13:44:49.610Z,7.20
2019-05-06T13:47:43.177Z,7.97
2019-05-06T13:50:16.260Z,6.83
2019-05-06T13:53:06.549Z,7.07
2019-05-06T13:55:22.062Z,7.50
2019-05-06T13:57:53.703Z,6.77
2019-05-06T14:00:24.653Z,7.80
2019-05-06T14:02:58.819Z,6.97
2019-05-06T14:05:33.077Z,8.60
2019-05-06T14:08:09.147Z,8.40
2019-05-06T14:10:43.551Z,8.23
2019-05-06T14:13:14.836Z,8.83
2019-05-06T14:15:52.653Z,8.50
2019-05-06T14:18:24.850Z,7.20
2019-05-06T14:20:56.944Z,8.00
2019-05-06T14:23:34.272Z,8.10
2019-05-06T14:26:17.193Z,9.17
2019-05-06T14:28:56.786Z,8.90
2019-05-06T14:31:32.526Z,9.50
2019-05-06T14:34:05.033Z,8.57
2019-05-06T14:36:40.079Z,8.80
2019-05-06T14:39:14.579Z,9.03
2019-05-06T14:41:55.595Z,9.37
2019-05-06T14:44:26.084Z,8.83
2019-05-06T14:47:00.313Z,9.93
2019-05-06T14:49:35.689Z,8.70
2019-05-06T14:52:08.116Z,7.90
2019-05-06T14:54:52.964Z,8.47
2019-05-06T14:57:23.041Z,9.23
2019-05-06T14:59:56.124Z,8.93
2019-05-06T15:02:27.452Z,8.40
2019-05-06T15:05:02.972Z,8.50
2019-05-06T15:07:33.117Z,8.80
2019-05-06T15:10:19.279Z,8.80
2019-05-06T15:12:38.710Z,8.97
2019-05-06T15:15:12.223Z,10.20
2019-05-06T15:17:45.325Z,9.23
2019-05-06T15:20:17.274Z,8.90
2019-05-06T15:22:53.275Z,8.60
2019-05-06T15:25:23.860Z,8.50
2019-05-06T15:28:02.380Z,8.80
2019-05-06T15:30:45.216Z,9.10
2019-05-06T15:33:22.677Z,9.90
2019-05-06T15:36:12.699Z,9.67
2019-05-06T15:38:46.826Z,10.40
2019-05-06T15:41:22.205Z,9.53
2019-05-06T15:43:53.752Z,8.87
2019-05-06T15:46:27.849Z,10.50
2019-05-06T15:48:57.439Z,10.60
2019-05-06T15:51:36.519Z,9.30
2019-05-06T15:54:11.307Z,10.27
2019-05-06T15:56:42.257Z,10.00
2019-05-06T15:59:12.311Z,10.90
2019-05-06T16:01:46.770Z,11.60
2019-05-06T16:04:23.852Z,10.37
2019-05-06T16:06:56.271Z,10.77
2019-05-06T16:09:26.099Z,10.03
2019-05-06T16:11:56.045Z,10.27
2019-05-06T16:14:25.932Z,9.97
2019-05-06T16:16:56.363Z,11.33
2019-05-06T16:19:27.347Z,11.30
2019-05-06T16:21:57.565Z,10.67
2019-05-06T16:24:35.426Z,10.50
2019-05-06T16:27:15.768Z,12.83
2019-05-06T16:29:47.450Z,14.53
2019-05-06T16:32:21.929Z,14.43
2019-05-06T16:34:52.437Z,14.53
2019-05-06T16:37:22.876Z,13.90
2019-05-06T16:39:54.667Z,16.50
2019-05-06T16:42:28.404Z,15.70
2019-05-06T16:44:59.735Z,16.33
2019-05-06T16:47:44.217Z,15.90
2019-05-06T16:50:22.557Z,15.87
2019-05-06T16:53:04.089Z,16.70
2019-05-06T16:55:46.119Z,16.40
2019-05-06T16:58:32.806Z,17.77
2019-05-06T17:01:06.451Z,17.30
2019-05-06T17:03:42.853Z,17.47
2019-05-06T17:06:25.921Z,18.53
2019-05-06T17:08:55.437Z,20.20
2019-05-06T17:11:30.409Z,17.90
2019-05-06T17:13:57.057Z,18.10
2019-05-06T17:16:28.425Z,19.97
2019-05-06T17:19:03.417Z,18.13
2019-05-06T17:21:35.231Z,18.47
2019-05-06T17:24:12.865Z,19.70
2019-05-06T17:26:42.861Z,18.20
2019-05-06T17:29:22.676Z,19.77
2019-05-06T17:32:11.872Z,18.70
2019-05-06T17:34:43.292Z,19.13
2019-05-06T17:37:15.674Z,21.00
2019-05-06T17:39:46.045Z,19.97
2019-05-06T17:42:17.530Z,19.70
2019-05-06T17:44:50.200Z,17.50
2019-05-06T17:50:15.443Z,16.60
2019-05-06T17:52:45.829Z,20.80
2019-05-06T17:55:22.040Z,19.85
2019-05-06T17:57:52.882Z,19.30
2019-05-06T18:00:24.491Z,17.98
2019-05-06T18:02:57.751Z,21.20
2019-05-06T18:05:28.030Z,20.92
2019-05-06T18:08:02.838Z,19.37
2019-05-06T18:10:35.493Z,20.05
2019-05-06T18:13:09.160Z,19.93
2019-05-06T18:15:50.436Z,20.73
2019-05-06T18:18:29.006Z,19.35
2019-05-06T18:20:59.734Z,20.60
2019-05-06T18:23:33.613Z,19.05
2019-05-06T18:26:05.855Z,21.42
2019-05-06T18:28:37.441Z,21.97
2019-05-06T18:31:12.500Z,22.77
2019-05-06T18:33:47.131Z,22.32
2019-05-06T18:36:23.753Z,21.82
2019-05-06T18:38:58.060Z,22.62
2019-05-06T18:41:29.392Z,20.63
2019-05-06T18:44:04.914Z,19.70
2019-05-06T18:46:41.894Z,19.27
2019-05-06T18:49:17.671Z,17.45
2019-05-06T18:51:55.653Z,16.67
2019-05-06T18:54:27.126Z,17.73
2019-05-06T18:57:02.036Z,17.70
2019-05-06T18:59:39.487Z,17.80
2019-05-06T19:02:13.183Z,17.67
2019-05-06T19:04:52.267Z,16.52
2019-05-06T19:07:33.433Z,18.17
2019-05-06T19:10:08.244Z,18.37
2019-05-06T19:12:44.929Z,20.90
2019-05-06T19:15:17.024Z,19.73
2019-05-06T19:17:52.484Z,18.42
2019-05-06T19:20:24.398Z,19.37
2019-05-06T19:22:55.869Z,19.73
2019-05-06T19:25:34.627Z,19.65
2019-05-06T19:28:05.167Z,19.95
2019-05-06T19:30:37.546Z,20.20
2019-05-06T19:33:14.881Z,21.20
2019-05-06T19:35:52.914Z,22.82
2019-05-06T19:38:28.541Z,23.73
2019-05-06T19:41:02.077Z,20.82
2019-05-06T19:43:37.588Z,22.80
2019-05-06T19:46:12.125Z,22.60
2019-05-06T19:48:45.291Z,23.25
2019-05-06T19:51:17.433Z,24.45
2019-05-06T19:53:49.159Z,23.38
2019-05-06T19:56:23.224Z,24.10
2019-05-06T19:59:03.247Z,22.07
2019-05-06T20:01:34.623Z,23.77
2019-05-06T20:04:08.107Z,24.35
2019-05-06T20:06:45.409Z,24.65
2019-05-06T20:09:25.692Z,24.67
2019-05-06T20:11:57.421Z,23.52
2019-05-06T20:14:29.694Z,23.47
2019-05-06T20:16:59.909Z,22.50
2019-05-06T20:19:31.198Z,23.25
2019-05-06T20:22:03.867Z,23.65
2019-05-06T20:24:36.272Z,23.92
2019-05-06T20:27:05.436Z,22.85
2019-05-06T20:29:36.864Z,23.70
2019-05-06T20:32:05.776Z,22.13
2019-05-06T20:34:35.357Z,22.32
2019-05-06T20:37:04.637Z,22.90
2019-05-06T20:39:33.924Z,22.17
2019-05-06T20:42:03.203Z,21.48
2019-05-06T20:44:32.617Z,22.80
2019-05-06T20:47:03.070Z,22.60
2019-05-06T20:49:33.299Z,21.15
2019-05-06T20:52:02.673Z,21.05
2019-05-06T20:54:32.544Z,21.75
2019-05-06T20:57:02.561Z,23.10
2019-05-06T20:59:32.340Z,21.90
2019-05-06T21:02:03.178Z,22.52
2019-05-06T21:04:32.599Z,21.97
2019-05-06T21:07:02.804Z,21.17
2019-05-06T21:09:32.184Z,21.55
2019-05-06T21:12:01.444Z,21.60
2019-05-06T21:14:32.348Z,22.85
2019-05-06T21:17:02.497Z,21.90
2019-05-06T21:19:33.102Z,21.40
2019-05-06T21:22:02.647Z,21.70
2019-05-06T21:24:33.289Z,20.37
2019-05-06T21:27:03.135Z,21.23
2019-05-06T21:29:32.714Z,25.60
2019-05-06T21:32:02.704Z,23.47
2019-05-06T21:34:33.129Z,21.82
2019-05-06T21:37:02.937Z,24.35
2019-05-06T21:39:32.874Z,24.23
2019-05-06T21:42:02.325Z,26.50
2019-05-06T21:44:32.421Z,23.87
2019-05-06T21:47:02.933Z,23.10
2019-05-06T21:49:32.785Z,22.98
2019-05-06T21:52:03.318Z,23.35
2019-05-06T21:54:32.946Z,22.75
2019-05-06T21:57:02.878Z,23.75
2019-05-06T21:59:32.451Z,24.50
2019-05-06T22:02:01.797Z,23.57
2019-05-06T22:04:32.724Z,24.12
2019-05-06T22:07:03.019Z,25.52
2019-05-06T22:09:33.377Z,22.75
2019-05-06T22:12:02.650Z,25.12
2019-05-06T22:14:32.582Z,25.35
2019-05-06T22:17:04.129Z,23.92
2019-05-06T22:19:33.187Z,23.75
2019-05-06T22:22:05.538Z,23.77
2019-05-06T22:24:39.266Z,24.80
2019-05-06T22:27:08.547Z,25.77
2019-05-06T22:29:37.826Z,25.20
2019-05-06T22:32:07.115Z,25.30
2019-05-06T22:34:36.389Z,25.65
2019-05-06T22:37:05.666Z,26.35
2019-05-06T22:39:35.013Z,25.52
2019-05-06T22:42:04.535Z,25.97
2019-05-06T22:44:34.037Z,29.12
2019-05-06T22:47:03.386Z,26.77
2019-05-06T22:49:32.657Z,25.97
2019-05-06T22:52:02.918Z,26.95
2019-05-06T22:54:32.569Z,26.02
2019-05-06T22:57:02.424Z,28.55
2019-05-06T22:59:33.113Z,25.80
2019-05-06T23:02:06.944Z,28.30
2019-05-06T23:04:43.922Z,25.55
2019-05-06T23:07:14.221Z,27.17
2019-05-06T23:09:43.881Z,27.82
2019-05-06T23:12:13.171Z,29.90
2019-05-06T23:14:42.440Z,28.42
2019-05-06T23:17:12.686Z,27.62
2019-05-06T23:19:42.797Z,27.77
2019-05-06T23:22:13.215Z,26.57
2019-05-06T23:24:42.485Z,28.65
2019-05-06T23:27:12.656Z,26.70
2019-05-06T23:29:42.529Z,27.58
2019-05-06T23:32:14.056Z,26.45
2019-05-06T23:34:43.433Z,26.65
2019-05-06T23:37:17.263Z,27.87
2019-05-06T23:40:22.758Z,26.52
2019-05-06T23:43:27.934Z,27.05
2019-05-06T23:46:33.409Z,26.45
2019-05-06T23:49:38.797Z,27.40
2019-05-06T23:52:44.035Z,27.48
2019-05-06T23:55:49.110Z,28.20
2019-05-06T23:58:17.544Z,29.00
